Time;durP1;ratioP1;P1;durP2;ratioP2;P2;SDS_P1;SDS_P2;PMS_P1;PMS_P2;Temp;Humidity;BMP_temperature;BMP_pressure;BME280_temperature;BME280_humidity;BME280_pressure;Samples;Min_cycle;Max_cycle;Signal;HPM_P1;HPM_P2
2021/07/16 00:01:33;;;;;;;1.33;1.25;;;23.20;67.00;;;;;;5068752;28;20124;-26
2021/07/16 00:03:59;;;;;;;1.60;1.50;;;23.20;66.90;;;;;;5065120;28;20021;-27
2021/07/16 00:06:25;;;;;;;1.33;1.23;;;23.20;66.90;;;;;;5060173;28;20075;-25
2021/07/16 00:08:50;;;;;;;1.40;1.30;;;23.30;66.80;;;;;;5060491;28;20512;-27
2021/07/16 00:11:16;;;;;;;1.50;1.40;;;23.20;66.80;;;;;;5060949;28;20041;-29
2021/07/16 00:13:41;;;;;;;1.38;1.27;;;23.20;66.90;;;;;;5062031;28;20423;-27
2021/07/16 00:16:07;;;;;;;1.55;1.45;;;23.20;66.90;;;;;;5071778;28;20037;-29
2021/07/16 00:18:33;;;;;;;1.23;1.23;;;23.20;67.10;;;;;;5063719;28;20041;-31
2021/07/16 00:21:01;;;;;;;1.50;1.40;;;23.10;67.10;;;;;;5052465;28;20034;-30
2021/07/16 00:23:27;;;;;;;1.20;1.20;;;23.10;67.10;;;;;;5069026;28;20028;-31
2021/07/16 00:25:52;;;;;;;1.65;1.30;;;23.10;67.20;;;;;;5069170;28;20032;-24
2021/07/16 00:28:18;;;;;;;1.67;1.58;;;23.10;67.30;;;;;;5072241;28;20469;-28
2021/07/16 00:30:43;;;;;;;1.30;1.20;;;23.10;67.20;;;;;;5058334;28;20188;-27
2021/07/16 00:33:09;;;;;;;1.40;1.30;;;23.00;67.50;;;;;;5069793;28;20028;-29
2021/07/16 00:35:34;;;;;;;1.73;1.60;;;23.00;67.60;;;;;;5068658;28;20028;-26
2021/07/16 00:38:00;;;;;;;1.42;1.33;;;23.00;67.60;;;;;;5063685;28;20031;-25
2021/07/16 00:40:26;;;;;;;1.50;1.40;;;23.00;68.20;;;;;;5040815;28;20037;-25
2021/07/16 00:42:51;;;;;;;1.55;1.45;;;23.10;67.40;;;;;;5057682;28;20174;-28
2021/07/16 00:45:17;;;;;;;1.45;1.38;;;23.10;67.30;;;;;;5059721;28;20028;-27
2021/07/16 00:47:44;;;;;;;1.38;1.38;;;23.10;67.30;;;;;;5042454;28;20436;-31
2021/07/16 00:50:12;;;;;;;1.63;1.52;;;23.10;67.50;;;;;;5064095;28;20075;-28
2021/07/16 00:52:38;;;;;;;1.35;1.35;;;23.10;67.20;;;;;;5050905;28;20116;-31
2021/07/16 00:55:05;;;;;;;1.70;1.60;;;23.00;67.50;;;;;;5038166;28;20103;-28
2021/07/16 00:57:30;;;;;;;1.70;1.60;;;23.00;67.90;;;;;;5036697;28;20069;-27
2021/07/16 00:59:56;;;;;;;1.35;1.30;;;23.00;67.80;;;;;;5058902;28;20037;-31
2021/07/16 01:02:21;;;;;;;1.33;1.33;;;23.00;67.80;;;;;;5045810;28;20020;-32
2021/07/16 01:04:47;;;;;;;1.50;1.40;;;23.00;67.80;;;;;;5068182;28;20033;-25
2021/07/16 01:07:12;;;;;;;1.30;1.30;;;23.00;67.80;;;;;;5071190;28;20530;-29
2021/07/16 01:09:38;;;;;;;1.20;1.20;;;23.00;67.70;;;;;;5066142;28;20029;-29
2021/07/16 01:12:04;;;;;;;1.42;1.42;;;23.10;67.60;;;;;;5065296;28;20123;-30
2021/07/16 01:14:30;;;;;;;1.40;1.30;;;23.00;67.80;;;;;;5049680;28;20107;-26
2021/07/16 01:16:56;;;;;;;1.42;1.42;;;23.00;67.70;;;;;;5068100;28;20083;-26
2021/07/16 01:19:56;;;;;;;1.40;1.30;;;23.00;67.80;;;;;;5069467;28;20107;-31
2021/07/16 01:22:21;;;;;;;1.75;1.35;;;23.00;67.70;;;;;;5049345;28;20034;-29
2021/07/16 01:24:47;;;;;;;1.17;1.17;;;23.00;67.70;;;;;;5053856;28;20111;-26
2021/07/16 01:27:13;;;;;;;1.67;1.58;;;23.10;67.50;;;;;;5041200;28;20017;-26
2021/07/16 01:29:38;;;;;;;1.60;1.33;;;23.00;67.60;;;;;;5041805;28;20029;-26
2021/07/16 01:32:04;;;;;;;1.85;1.75;;;23.00;67.70;;;;;;5041706;28;20028;-26
2021/07/16 01:34:30;;;;;;;1.70;1.60;;;23.00;67.70;;;;;;5041165;28;20036;-32
2021/07/16 01:36:55;;;;;;;1.60;1.50;;;23.00;67.80;;;;;;5021864;28;20052;-27
2021/07/16 01:39:21;;;;;;;1.30;1.30;;;23.00;67.80;;;;;;5069750;28;20049;-31
2021/07/16 01:41:46;;;;;;;1.58;1.48;;;23.00;67.80;;;;;;5066690;28;20066;-27
2021/07/16 01:44:12;;;;;;;1.58;1.38;;;23.00;67.90;;;;;;5067691;28;20086;-28
2021/07/16 01:46:38;;;;;;;1.38;1.30;;;23.00;67.80;;;;;;5069816;28;20074;-25
2021/07/16 01:49:04;;;;;;;1.50;1.40;;;23.00;67.70;;;;;;5065538;28;20029;-31
2021/07/16 01:51:29;;;;;;;1.10;1.10;;;23.00;67.80;;;;;;5070150;28;20389;-28
2021/07/16 01:53:57;;;;;;;1.33;1.20;;;23.00;67.80;;;;;;5067649;28;20027;-29
2021/07/16 01:56:22;;;;;;;1.55;1.50;;;23.00;67.80;;;;;;5033362;28;20103;-28
2021/07/16 01:58:48;;;;;;;1.80;1.70;;;23.00;67.70;;;;;;5067295;28;20175;-31
2021/07/16 02:01:14;;;;;;;1.33;1.33;;;23.00;67.70;;;;;;5069995;28;20024;-25
2021/07/16 02:03:45;;;;;;;1.35;1.25;;;23.00;67.80;;;;;;5070331;28;20044;-27
2021/07/16 02:06:11;;;;;;;1.38;1.33;;;23.00;67.80;;;;;;5058067;28;20029;-27
2021/07/16 02:08:37;;;;;;;1.30;1.30;;;23.00;67.90;;;;;;5058907;28;20029;-27
2021/07/16 02:11:03;;;;;;;1.55;1.45;;;23.00;67.80;;;;;;5058139;28;20041;-28
2021/07/16 02:13:29;;;;;;;1.23;1.23;;;23.00;67.80;;;;;;5058350;28;20074;-25
2021/07/16 02:15:54;;;;;;;1.25;1.25;;;23.00;67.80;;;;;;5054858;28;20021;-28
2021/07/16 02:18:20;;;;;;;1.45;1.27;;;23.00;68.70;;;;;;5063563;28;20098;-32
2021/07/16 02:20:46;;;;;;;1.40;1.40;;;23.00;67.80;;;;;;5066908;28;20505;-26
2021/07/16 02:23:14;;;;;;;1.95;1.63;;;23.00;67.90;;;;;;5049038;28;20028;-25
2021/07/16 02:25:39;;;;;;;1.48;1.48;;;23.00;67.90;;;;;;5069022;28;20043;-27
2021/07/16 02:28:07;;;;;;;1.48;1.38;;;23.00;68.00;;;;;;5054831;28;20025;-26
2021/07/16 02:30:33;;;;;;;1.42;1.40;;;22.90;68.20;;;;;;5056483;28;20028;-35
2021/07/16 02:32:59;;;;;;;1.58;1.17;;;22.90;68.20;;;;;;5058439;28;20033;-26
2021/07/16 02:35:25;;;;;;;1.40;1.40;;;23.00;68.20;;;;;;5058286;28;20032;-28
2021/07/16 02:37:50;;;;;;;1.30;1.30;;;22.90;68.00;;;;;;5058248;28;20029;-30
2021/07/16 02:40:18;;;;;;;1.33;1.33;;;23.00;67.80;;;;;;5056248;28;20029;-25
2021/07/16 02:42:43;;;;;;;1.73;1.63;;;22.90;67.90;;;;;;5055823;28;20489;-28
2021/07/16 02:45:13;;;;;;;1.42;1.35;;;22.90;68.00;;;;;;5058313;28;20029;-25
2021/07/16 02:47:39;;;;;;;1.13;1.13;;;23.00;68.00;;;;;;5065858;28;20055;-29
2021/07/16 02:50:12;;;;;;;1.40;1.30;;;22.90;68.10;;;;;;5066356;28;20512;-26
2021/07/16 02:52:38;;;;;;;1.45;1.35;;;22.90;69.00;;;;;;5066356;28;20559;-26
2021/07/16 02:55:04;;;;;;;1.25;1.25;;;22.90;68.10;;;;;;5069315;28;20515;-26
2021/07/16 02:57:30;;;;;;;1.70;1.60;;;22.80;68.20;;;;;;5056516;28;20520;-28
2021/07/16 02:59:56;;;;;;;2.33;1.45;;;22.80;68.10;;;;;;5065437;28;20040;-27
2021/07/16 03:02:21;;;;;;;1.75;1.50;;;22.90;67.90;;;;;;5066196;28;20041;-27
2021/07/16 03:04:49;;;;;;;1.20;1.20;;;22.90;68.10;;;;;;5067227;28;20040;-31
2021/07/16 03:07:16;;;;;;;1.30;1.30;;;22.90;68.10;;;;;;5054575;28;20021;-28
2021/07/16 03:09:41;;;;;;;1.40;1.40;;;22.90;68.10;;;;;;5068955;28;20559;-26
2021/07/16 03:12:07;;;;;;;1.27;1.27;;;22.90;68.00;;;;;;5067516;28;20044;-27
2021/07/16 03:14:33;;;;;;;1.25;1.25;;;22.90;67.90;;;;;;5065685;28;20392;-25
2021/07/16 03:16:58;;;;;;;1.73;1.63;;;22.80;68.10;;;;;;5062860;28;20032;-29
2021/07/16 03:19:24;;;;;;;1.35;1.35;;;22.80;68.20;;;;;;5062769;28;20036;-27
2021/07/16 03:21:49;;;;;;;1.52;1.42;;;22.80;68.00;;;;;;5055794;28;20064;-33
2021/07/16 03:24:15;;;;;;;1.42;1.30;;;22.80;68.00;;;;;;5058708;28;20076;-26
2021/07/16 03:26:41;;;;;;;1.73;1.63;;;22.80;68.90;;;;;;5058029;28;20520;-32
2021/07/16 03:29:07;;;;;;;1.80;1.70;;;22.80;68.10;;;;;;5057293;28;20029;-30
2021/07/16 03:31:32;;;;;;;1.70;1.60;;;22.70;68.30;;;;;;5057571;28;20017;-29
2021/07/16 03:33:58;;;;;;;1.95;1.85;;;22.70;68.30;;;;;;5053208;28;20032;-28
2021/07/16 03:36:23;;;;;;;1.45;1.40;;;22.70;68.10;;;;;;5056586;28;20386;-30
2021/07/16 03:38:51;;;;;;;1.90;1.80;;;22.70;68.00;;;;;;5057304;28;20086;-28
2021/07/16 03:41:17;;;;;;;1.85;1.75;;;22.80;68.10;;;;;;5059094;28;20024;-27
2021/07/16 03:43:43;;;;;;;1.88;1.77;;;22.70;68.40;;;;;;5067162;28;20234;-31
2021/07/16 03:46:09;;;;;;;1.48;1.48;;;22.70;68.40;;;;;;5054154;28;20028;-27
2021/07/16 03:48:34;;;;;;;1.75;1.65;;;22.70;68.30;;;;;;5055351;28;20107;-31
2021/07/16 03:51:00;;;;;;;1.60;1.50;;;22.60;68.30;;;;;;5057504;28;20493;-29
2021/07/16 03:53:26;;;;;;;1.75;1.60;;;22.60;68.40;;;;;;5063500;28;20063;-27
2021/07/16 03:55:51;;;;;;;1.70;1.60;;;22.60;68.40;;;;;;5065425;28;20036;-32
2021/07/16 03:58:17;;;;;;;2.20;1.55;;;22.70;68.30;;;;;;5067589;28;20501;-26
2021/07/16 04:00:42;;;;;;;1.52;1.42;;;22.60;69.00;;;;;;5063415;28;20107;-30
2021/07/16 04:03:08;;;;;;;1.80;1.70;;;22.60;68.20;;;;;;5066442;28;20079;-26
2021/07/16 04:05:34;;;;;;;1.52;1.50;;;22.60;68.30;;;;;;5062681;28;20495;-31
2021/07/16 04:08:06;;;;;;;1.80;1.70;;;22.60;68.40;;;;;;5057191;28;20025;-26
2021/07/16 04:10:35;;;;;;;1.52;1.50;;;22.60;68.30;;;;;;5057020;28;20080;-31
2021/07/16 04:13:06;;;;;;;1.90;1.80;;;22.50;68.60;;;;;;5044725;28;20021;-32
2021/07/16 04:15:32;;;;;;;1.75;1.65;;;22.50;68.70;;;;;;5055522;28;20467;-27
2021/07/16 04:17:59;;;;;;;1.38;1.38;;;22.50;68.60;;;;;;5057080;28;20029;-27
2021/07/16 04:20:26;;;;;;;2.15;1.95;;;22.60;68.50;;;;;;5056511;28;20033;-29
2021/07/16 04:22:52;;;;;;;1.80;1.70;;;22.60;68.30;;;;;;5056777;28;20089;-28
2021/07/16 04:25:18;;;;;;;1.80;1.70;;;22.50;68.50;;;;;;5055761;28;20103;-31
2021/07/16 04:27:44;;;;;;;1.90;1.80;;;22.50;68.60;;;;;;5054331;28;20029;-26
2021/07/16 04:30:10;;;;;;;1.90;1.80;;;22.60;68.40;;;;;;5056216;28;20021;-26
2021/07/16 04:32:37;;;;;;;1.45;1.40;;;22.50;68.40;;;;;;5039071;28;20029;-27
2021/07/16 04:35:03;;;;;;;1.30;1.20;;;22.60;68.30;;;;;;5041930;28;20367;-32
2021/07/16 04:37:29;;;;;;;1.90;1.70;;;22.60;68.20;;;;;;5060151;28;20128;-27
2021/07/16 04:39:55;;;;;;;1.67;1.58;;;22.60;68.20;;;;;;5057282;28;20507;-28
2021/07/16 04:42:21;;;;;;;1.60;1.45;;;22.60;68.20;;;;;;5070772;28;20056;-27
2021/07/16 04:44:47;;;;;;;1.38;1.27;;;22.50;69.10;;;;;;5068669;28;20503;-28
2021/07/16 04:47:13;;;;;;;1.58;1.48;;;22.50;68.30;;;;;;5067973;28;20028;-30
2021/07/16 04:49:38;;;;;;;1.75;1.65;;;22.50;69.10;;;;;;5064640;28;20028;-29
2021/07/16 04:52:04;;;;;;;1.95;1.85;;;22.50;68.40;;;;;;5056523;28;20020;-29
2021/07/16 04:54:30;;;;;;;1.58;1.48;;;22.50;68.40;;;;;;5062611;28;20021;-28
2021/07/16 04:56:56;;;;;;;1.30;1.30;;;22.50;68.40;;;;;;5060268;28;20508;-28
2021/07/16 04:59:21;;;;;;;1.63;1.52;;;22.50;68.60;;;;;;5060159;28;20060;-30
2021/07/16 05:01:48;;;;;;;1.95;1.85;;;22.50;68.60;;;;;;5056196;28;20111;-33
2021/07/16 05:04:14;;;;;;;2.10;2.00;;;22.50;68.30;;;;;;5058729;28;20025;-29
2021/07/16 05:06:39;;;;;;;1.90;1.80;;;22.50;68.20;;;;;;5057770;28;20027;-27
2021/07/16 05:09:05;;;;;;;2.42;2.25;;;22.50;68.60;;;;;;5060038;28;20068;-33
2021/07/16 05:11:31;;;;;;;1.98;1.88;;;22.50;68.40;;;;;;5059388;28;20528;-27
2021/07/16 05:13:56;;;;;;;1.75;1.65;;;22.50;69.30;;;;;;5059892;28;20570;-28
2021/07/16 05:16:22;;;;;;;2.00;1.90;;;22.50;68.40;;;;;;5058492;28;20020;-28
2021/07/16 05:18:48;;;;;;;1.88;1.77;;;22.50;68.10;;;;;;5057038;28;20525;-28
2021/07/16 05:21:13;;;;;;;2.00;1.90;;;22.50;68.10;;;;;;5058987;28;20025;-26
2021/07/16 05:23:39;;;;;;;2.17;1.90;;;22.50;68.20;;;;;;5059640;28;20060;-28
2021/07/16 05:26:05;;;;;;;2.80;2.10;;;22.50;68.10;;;;;;5041948;28;20025;-27
2021/07/16 05:28:30;;;;;;;1.77;1.67;;;22.60;68.10;;;;;;5059370;28;20453;-28
2021/07/16 05:30:56;;;;;;;2.15;2.05;;;22.50;68.00;;;;;;5058287;28;20064;-26
2021/07/16 05:33:23;;;;;;;1.85;1.75;;;22.50;68.80;;;;;;5069889;28;20111;-25
2021/07/16 05:35:49;;;;;;;1.83;1.70;;;22.60;67.90;;;;;;5067198;28;20064;-26
2021/07/16 05:38:14;;;;;;;1.52;1.42;;;22.60;68.10;;;;;;5067739;28;20067;-30
2021/07/16 05:40:40;;;;;;;2.05;1.95;;;22.60;68.00;;;;;;5067379;28;20033;-25
2021/07/16 05:43:06;;;;;;;2.00;1.90;;;22.50;68.00;;;;;;5060031;28;20524;-30
2021/07/16 05:45:32;;;;;;;1.60;1.50;;;22.50;67.90;;;;;;5056462;28;20521;-30
2021/07/16 05:48:00;;;;;;;1.73;1.63;;;22.50;68.10;;;;;;5059204;28;20025;-27
2021/07/16 05:50:26;;;;;;;1.92;1.83;;;22.50;68.00;;;;;;5059093;28;20063;-28
2021/07/16 05:52:51;;;;;;;1.73;1.63;;;22.50;68.00;;;;;;5059149;28;20059;-26
2021/07/16 05:55:17;;;;;;;1.77;1.67;;;22.60;67.90;;;;;;5058443;28;20512;-29
2021/07/16 05:57:42;;;;;;;1.92;1.83;;;22.60;68.20;;;;;;5070802;28;20393;-28
2021/07/16 06:00:09;;;;;;;1.40;1.40;;;22.60;68.20;;;;;;5058764;28;20094;-27
2021/07/16 06:02:34;;;;;;;1.92;1.80;;;22.50;68.20;;;;;;5064486;28;20605;-34
2021/07/16 06:05:00;;;;;;;1.70;1.60;;;22.50;68.20;;;;;;5055308;28;20139;-26
2021/07/16 06:07:25;;;;;;;1.50;1.40;;;22.60;68.20;;;;;;5065001;28;20108;-28
2021/07/16 06:09:51;;;;;;;1.67;1.58;;;22.50;68.30;;;;;;5063375;28;20085;-29
2021/07/16 06:12:16;;;;;;;1.90;1.75;;;22.50;68.40;;;;;;5063109;28;20170;-31
2021/07/16 06:14:42;;;;;;;1.65;1.55;;;22.50;68.60;;;;;;5039701;28;20061;-29
2021/07/16 06:17:08;;;;;;;1.80;1.70;;;22.50;68.50;;;;;;5061693;28;20017;-27
2021/07/16 06:19:34;;;;;;;1.90;1.80;;;22.50;68.40;;;;;;5065674;28;20170;-30
2021/07/16 06:21:59;;;;;;;1.80;1.70;;;22.50;69.10;;;;;;5070531;28;20560;-26
2021/07/16 06:24:25;;;;;;;1.52;1.42;;;22.50;68.30;;;;;;5066835;28;20043;-30
2021/07/16 06:26:51;;;;;;;1.85;1.70;;;22.50;68.30;;;;;;5065866;28;20029;-32
2021/07/16 06:29:16;;;;;;;1.88;1.77;;;22.60;68.30;;;;;;5060946;28;20044;-29
2021/07/16 06:31:42;;;;;;;1.85;1.77;;;22.50;68.30;;;;;;5061953;28;20024;-31
2021/07/16 06:34:07;;;;;;;2.00;1.90;;;22.60;68.40;;;;;;5065723;28;20423;-30
2021/07/16 06:36:33;;;;;;;1.80;1.70;;;22.60;68.40;;;;;;5068342;28;20075;-27
2021/07/16 06:38:58;;;;;;;2.03;1.92;;;22.50;69.40;;;;;;5064286;28;20036;-31
2021/07/16 06:41:26;;;;;;;1.80;1.70;;;22.60;68.30;;;;;;5065014;28;20524;-32
2021/07/16 06:43:52;;;;;;;1.85;1.70;;;22.60;68.20;;;;;;5065567;28;20067;-32
2021/07/16 06:46:18;;;;;;;1.75;1.65;;;22.60;68.20;;;;;;5069953;28;20055;-33
2021/07/16 06:48:43;;;;;;;2.22;1.90;;;22.70;68.30;;;;;;5066294;28;20064;-29
2021/07/16 06:51:10;;;;;;;2.25;2.10;;;22.70;69.00;;;;;;5061828;28;20046;-30
2021/07/16 06:53:36;;;;;;;2.00;1.90;;;22.60;68.20;;;;;;5068825;28;20020;-32
2021/07/16 06:56:01;;;;;;;1.90;1.80;;;22.70;68.30;;;;;;5063197;28;20131;-32
2021/07/16 06:58:27;;;;;;;2.10;2.00;;;22.60;68.20;;;;;;5055649;28;20463;-27
2021/07/16 07:00:52;;;;;;;1.98;1.88;;;22.60;68.20;;;;;;5069714;28;20119;-27
2021/07/16 07:03:18;;;;;;;2.20;2.10;;;22.60;68.60;;;;;;5066551;28;20485;-30
2021/07/16 07:05:44;;;;;;;2.00;1.90;;;22.60;69.20;;;;;;5057800;28;20032;-30
2021/07/16 07:08:09;;;;;;;2.05;1.90;;;22.60;68.50;;;;;;5060723;28;20394;-33
2021/07/16 07:10:35;;;;;;;2.10;2.00;;;22.50;68.60;;;;;;5063909;28;20052;-30
2021/07/16 07:13:07;;;;;;;2.10;2.00;;;22.60;68.60;;;;;;5070172;28;20538;-34
2021/07/16 07:15:35;;;;;;;1.85;1.80;;;22.60;68.60;;;;;;5066408;28;20033;-27
2021/07/16 07:18:01;;;;;;;2.20;2.10;;;22.60;68.50;;;;;;5057213;28;20029;-32
2021/07/16 07:20:27;;;;;;;1.95;1.85;;;22.50;68.60;;;;;;5058460;28;20041;-28
2021/07/16 07:22:53;;;;;;;1.77;1.67;;;22.60;68.60;;;;;;5065369;28;20439;-28
2021/07/16 07:25:18;;;;;;;2.00;1.90;;;22.50;68.70;;;;;;5064674;28;20025;-28
2021/07/16 07:27:44;;;;;;;1.77;1.67;;;22.60;68.70;;;;;;5054362;28;20025;-30
2021/07/16 07:30:10;;;;;;;1.60;1.58;;;22.60;68.70;;;;;;5064667;28;20051;-31
2021/07/16 07:32:35;;;;;;;1.98;1.88;;;22.60;68.60;;;;;;5067099;28;20048;-30
2021/07/16 07:35:01;;;;;;;1.63;1.52;;;22.70;68.40;;;;;;5065206;28;20094;-28
2021/07/16 07:37:27;;;;;;;2.08;1.98;;;22.70;68.50;;;;;;5057964;28;20170;-27
2021/07/16 07:39:52;;;;;;;2.38;2.28;;;22.70;68.60;;;;;;5053358;28;20033;-30
2021/07/16 07:42:21;;;;;;;2.70;2.50;;;22.60;68.80;;;;;;5056135;28;20488;-30
2021/07/16 07:44:47;;;;;;;4.35;2.70;;;22.60;68.90;;;;;;5056941;28;20021;-28
2021/07/16 07:47:13;;;;;;;2.97;2.78;;;22.50;69.30;;;;;;5056843;28;20027;-31
2021/07/16 07:49:38;;;;;;;2.97;2.78;;;22.50;69.30;;;;;;5056571;28;20024;-28
2021/07/16 07:52:06;;;;;;;4.72;2.70;;;22.60;69.30;;;;;;5053255;28;20107;-33
2021/07/16 07:54:32;;;;;;;2.22;2.08;;;22.60;69.20;;;;;;5055094;28;20029;-29
2021/07/16 07:56:57;;;;;;;2.90;2.70;;;22.60;69.30;;;;;;5056570;28;20559;-28
2021/07/16 07:59:25;;;;;;;2.70;2.50;;;22.50;69.20;;;;;;5056518;28;20468;-27
2021/07/16 08:01:50;;;;;;;2.10;2.00;;;22.60;69.00;;;;;;5055871;28;20033;-31
2021/07/16 08:04:17;;;;;;;5.82;2.40;;;22.50;68.80;;;;;;5055132;28;20092;-35
2021/07/16 08:06:43;;;;;;;4.30;2.85;;;22.40;68.80;;;;;;5066234;28;20024;-30
2021/07/16 08:09:08;;;;;;;3.13;2.83;;;22.40;68.50;;;;;;5059667;28;20500;-34
2021/07/16 08:11:34;;;;;;;2.40;2.30;;;22.40;68.10;;;;;;5070124;28;20040;-25
2021/07/16 08:14:00;;;;;;;2.05;1.95;;;22.30;67.90;;;;;;5068404;28;20029;-29
2021/07/16 08:16:25;;;;;;;2.97;2.78;;;22.40;67.70;;;;;;5065600;28;20083;-26
2021/07/16 08:18:51;;;;;;;2.50;2.28;;;22.40;67.20;;;;;;5071251;28;20482;-28
2021/07/16 08:21:19;;;;;;;2.53;2.33;;;22.40;67.10;;;;;;5070489;28;20020;-26
2021/07/16 08:23:45;;;;;;;2.88;2.60;;;22.30;67.20;;;;;;5066705;28;20017;-27
2021/07/16 08:26:13;;;;;;;2.65;2.30;;;22.30;67.30;;;;;;5044536;28;20016;-27
2021/07/16 08:28:39;;;;;;;2.53;2.20;;;22.30;67.40;;;;;;5060081;28;20048;-27
2021/07/16 08:31:05;;;;;;;3.00;2.70;;;22.30;67.50;;;;;;5056525;28;20485;-29
2021/07/16 08:33:30;;;;;;;2.47;2.15;;;22.30;67.50;;;;;;5058825;28;20036;-28
2021/07/16 08:35:56;;;;;;;3.90;2.50;;;22.30;67.20;;;;;;5062517;28;20025;-30
2021/07/16 08:38:21;;;;;;;2.45;2.35;;;22.30;66.90;;;;;;5064336;28;20029;-31
2021/07/16 08:40:48;;;;;;;2.33;2.13;;;22.30;66.50;;;;;;5063101;28;20662;-30
2021/07/16 08:43:15;;;;;;;2.05;1.92;;;22.30;66.50;;;;;;5048802;28;20070;-34
2021/07/16 08:45:41;;;;;;;2.30;2.10;;;22.30;66.10;;;;;;5071245;28;20028;-29
2021/07/16 08:48:07;;;;;;;2.17;1.70;;;22.30;65.90;;;;;;5064003;28;20543;-27
2021/07/16 08:50:33;;;;;;;2.53;2.17;;;22.40;65.70;;;;;;5043473;28;20052;-31
2021/07/16 08:53:02;;;;;;;2.10;2.00;;;22.40;65.90;;;;;;5045601;28;20040;-29
2021/07/16 08:55:31;;;;;;;2.60;2.40;;;22.50;66.20;;;;;;5029156;28;20036;-28
2021/07/16 08:57:57;;;;;;;2.03;1.92;;;22.50;66.10;;;;;;5055316;28;20070;-31
2021/07/16 09:00:23;;;;;;;2.20;1.88;;;22.50;65.80;;;;;;5062912;28;20036;-36
2021/07/16 09:02:57;;;;;;;4.20;1.92;;;22.50;65.30;;;;;;5063048;28;20847;-32
2021/07/16 09:05:37;;;;;;;4.10;2.20;;;22.50;65.10;;;;;;5061309;28;20483;-34
2021/07/16 09:08:04;;;;;;;3.55;2.00;;;22.50;64.50;;;;;;5060635;28;20029;-30
2021/07/16 09:10:30;;;;;;;2.28;2.10;;;22.50;63.60;;;;;;5059303;28;20159;-28
2021/07/16 09:13:00;;;;;;;4.85;1.90;;;22.50;63.50;;;;;;5058045;28;20060;-32
2021/07/16 09:15:25;;;;;;;2.22;2.03;;;22.50;64.40;;;;;;5057834;28;20867;-33
2021/07/16 09:18:21;;;;;;;2.17;1.98;;;22.50;63.80;;;;;;5058110;28;20735;-29
2021/07/16 09:20:46;;;;;;;2.10;1.90;;;22.60;63.60;;;;;;5064242;28;20307;-31
2021/07/16 09:23:26;;;;;;;1.60;1.50;;;22.70;63.30;;;;;;5045086;28;20609;-27
2021/07/16 09:26:10;;;;;;;1.90;1.80;;;22.80;63.20;;;;;;5063450;28;20131;-26
2021/07/16 09:28:41;;;;;;;1.73;1.63;;;22.80;62.90;;;;;;5055727;28;20032;-30
2021/07/16 09:31:10;;;;;;;3.28;1.92;;;22.90;62.90;;;;;;5068804;28;20077;-29
2021/07/16 09:33:41;;;;;;;1.63;1.52;;;22.90;63.30;;;;;;5069964;28;20389;-29
2021/07/16 09:36:07;;;;;;;1.67;1.58;;;22.90;63.20;;;;;;5060098;28;21588;-26
2021/07/16 09:38:33;;;;;;;1.77;1.67;;;23.00;62.90;;;;;;5061310;28;20563;-27
2021/07/16 09:41:04;;;;;;;1.80;1.70;;;23.10;63.10;;;;;;5026094;28;20037;-27
2021/07/16 09:43:30;;;;;;;1.73;1.63;;;23.10;62.80;;;;;;5040044;28;21340;-31
2021/07/16 09:46:00;;;;;;;2.08;1.98;;;23.10;62.50;;;;;;5023832;28;20051;-26
2021/07/16 09:48:29;;;;;;;1.88;1.77;;;23.20;61.70;;;;;;5059034;28;20036;-31
2021/07/16 09:51:24;;;;;;;1.85;1.75;;;23.20;61.10;;;;;;5056947;28;20044;-28
2021/07/16 09:53:51;;;;;;;2.03;1.92;;;23.10;60.50;;;;;;5056924;28;20091;-27
2021/07/16 09:56:20;;;;;;;1.80;1.70;;;23.30;60.10;;;;;;5043567;28;20068;-30
2021/07/16 09:58:46;;;;;;;1.90;1.77;;;23.20;60.40;;;;;;5056679;28;20059;-26
2021/07/16 10:01:12;;;;;;;1.88;1.75;;;23.10;60.60;;;;;;5058034;28;20031;-33
2021/07/16 10:03:38;;;;;;;1.63;1.52;;;23.20;60.70;;;;;;5056971;28;20036;-29
2021/07/16 10:06:04;;;;;;;2.22;1.88;;;23.20;60.60;;;;;;5044021;28;20032;-29
2021/07/16 10:08:34;;;;;;;2.20;2.00;;;23.20;60.60;;;;;;5062052;28;20773;-31
2021/07/16 10:11:05;;;;;;;2.30;2.10;;;23.20;60.80;;;;;;5060716;28;20044;-27
2021/07/16 10:13:35;;;;;;;2.03;1.92;;;23.30;60.70;;;;;;5060674;28;20051;-27
2021/07/16 10:16:02;;;;;;;2.20;1.70;;;23.30;61.20;;;;;;5061584;28;20569;-34
2021/07/16 10:18:28;;;;;;;3.28;2.00;;;23.20;60.80;;;;;;5058283;28;20032;-30
2021/07/16 10:20:54;;;;;;;1.90;1.70;;;23.30;60.60;;;;;;5058138;28;20496;-30
2021/07/16 10:23:20;;;;;;;1.63;1.52;;;23.30;60.60;;;;;;4717265;28;10000015;-28
2021/07/16 10:25:49;;;;;;;2.05;1.95;;;23.30;60.40;;;;;;5046317;28;20085;-30
2021/07/16 10:28:40;;;;;;;2.22;2.13;;;23.40;59.90;;;;;;5061871;28;20028;-34
2021/07/16 10:31:32;;;;;;;2.50;2.25;;;23.30;59.30;;;;;;5060483;28;20020;-28
2021/07/16 10:34:18;;;;;;;2.10;2.00;;;23.40;60.20;;;;;;5064442;28;20032;-33
2021/07/16 10:36:49;;;;;;;1.90;1.80;;;23.40;59.80;;;;;;5045218;28;20048;-31
2021/07/16 10:39:22;;;;;;;2.15;1.50;;;23.40;60.60;;;;;;5058422;28;20055;-30
2021/07/16 10:41:47;;;;;;;1.83;1.63;;;23.40;61.00;;;;;;5059966;28;20799;-30
2021/07/16 10:44:14;;;;;;;1.80;1.70;;;23.30;61.00;;;;;;5040010;28;20032;-26
2021/07/16 10:46:43;;;;;;;1.90;1.80;;;23.30;61.20;;;;;;5061764;28;20127;-26
2021/07/16 10:49:09;;;;;;;2.10;2.00;;;23.30;61.30;;;;;;5062605;28;20040;-25
2021/07/16 10:51:35;;;;;;;2.10;1.90;;;23.30;60.80;;;;;;5059592;28;20055;-28
2021/07/16 10:54:03;;;;;;;1.85;1.75;;;23.30;61.30;;;;;;5059942;28;20029;-29
2021/07/16 10:56:40;;;;;;;1.80;1.70;;;23.30;60.90;;;;;;5063755;28;20029;-29
2021/07/16 10:59:06;;;;;;;2.10;1.80;;;23.40;60.60;;;;;;5065285;28;20069;-25
2021/07/16 11:01:39;;;;;;;1.85;1.75;;;23.40;61.00;;;;;;5065602;28;20033;-33
2021/07/16 11:04:07;;;;;;;1.90;1.80;;;23.40;61.20;;;;;;5064293;28;20056;-38
2021/07/16 11:06:57;;;;;;;2.08;1.98;;;23.40;61.40;;;;;;5063827;28;20036;-29
2021/07/16 11:09:32;;;;;;;2.25;1.90;;;23.30;62.10;;;;;;5054988;28;20037;-32
2021/07/16 11:12:23;;;;;;;2.88;1.77;;;23.30;61.30;;;;;;5057097;28;20044;-32
2021/07/16 11:14:49;;;;;;;1.92;1.80;;;23.40;61.30;;;;;;5043677;28;20039;-32
2021/07/16 11:17:28;;;;;;;2.00;1.80;;;23.40;60.80;;;;;;5057155;28;20036;-32
2021/07/16 11:20:09;;;;;;;2.85;2.20;;;23.40;61.40;;;;;;5055170;28;20490;-34
2021/07/16 11:22:34;;;;;;;2.15;1.95;;;23.40;61.00;;;;;;5058843;28;20042;-34
2021/07/16 11:25:00;;;;;;;2.42;2.25;;;23.40;60.60;;;;;;5060430;28;20028;-32
2021/07/16 11:27:26;;;;;;;2.33;2.22;;;23.40;59.90;;;;;;5056210;28;20059;-33
2021/07/16 11:29:52;;;;;;;2.10;2.00;;;23.50;60.40;;;;;;5052577;28;20098;-33
2021/07/16 11:32:25;;;;;;;2.10;1.90;;;23.50;60.50;;;;;;5056892;28;20342;-28
2021/07/16 11:34:58;;;;;;;2.50;2.30;;;23.50;60.10;;;;;;5054255;28;20043;-34
2021/07/16 11:37:29;;;;;;;2.17;1.97;;;23.50;60.40;;;;;;5060141;28;20119;-36
2021/07/16 11:40:09;;;;;;;1.83;1.73;;;23.50;61.30;;;;;;5059757;28;20040;-32
2021/07/16 11:42:36;;;;;;;2.00;1.80;;;23.50;61.60;;;;;;5057926;28;20108;-33
2021/07/16 11:45:06;;;;;;;2.08;1.98;;;23.50;61.70;;;;;;5063304;28;20036;-31
2021/07/16 11:47:31;;;;;;;2.33;2.13;;;23.40;61.40;;;;;;5056430;28;20055;-28
2021/07/16 11:49:59;;;;;;;2.17;2.08;;;23.50;61.60;;;;;;5051860;28;20143;-30
2021/07/16 11:52:29;;;;;;;2.00;1.90;;;23.50;62.00;;;;;;5055316;28;20024;-41
2021/07/16 11:55:16;;;;;;;2.30;2.10;;;23.50;61.80;;;;;;5034962;28;20593;-31
2021/07/16 11:58:00;;;;;;;2.28;2.17;;;23.60;62.10;;;;;;5053753;28;20105;-30
2021/07/16 12:00:30;;;;;;;2.03;1.90;;;23.50;62.40;;;;;;5065623;28;20634;-30
2021/07/16 12:03:09;;;;;;;2.17;2.08;;;23.60;62.40;;;;;;5053545;28;20512;-31
2021/07/16 12:05:46;;;;;;;2.85;2.25;;;23.50;62.40;;;;;;5055752;28;20105;-27
2021/07/16 12:08:11;;;;;;;2.10;2.00;;;23.60;62.40;;;;;;5056458;28;20036;-31
2021/07/16 12:10:37;;;;;;;2.35;2.15;;;23.60;62.30;;;;;;5061254;28;20041;-27
2021/07/16 12:13:03;;;;;;;3.42;2.10;;;23.60;62.60;;;;;;5063948;28;20120;-30
2021/07/16 12:15:29;;;;;;;1.77;1.67;;;23.60;62.50;;;;;;5059438;28;20036;-28
2021/07/16 12:18:01;;;;;;;2.00;1.90;;;23.60;62.50;;;;;;5054041;28;20089;-34
2021/07/16 12:20:26;;;;;;;2.03;1.85;;;23.60;62.50;;;;;;5046098;28;20043;-31
2021/07/16 12:22:52;;;;;;;2.13;2.00;;;23.70;62.60;;;;;;5058918;28;20036;-31
2021/07/16 12:25:18;;;;;;;3.25;2.20;;;23.70;62.50;;;;;;5037333;28;20028;-31
2021/07/16 12:27:44;;;;;;;2.10;2.00;;;23.70;62.30;;;;;;5058202;28;20434;-34
2021/07/16 12:30:11;;;;;;;2.03;1.83;;;23.70;62.70;;;;;;5056536;28;20040;-32
2021/07/16 12:32:43;;;;;;;2.72;2.08;;;23.70;63.40;;;;;;5018657;28;20042;-30
2021/07/16 12:35:18;;;;;;;2.45;2.30;;;23.70;62.60;;;;;;5053737;28;20032;-32
2021/07/16 12:37:46;;;;;;;2.20;2.10;;;23.70;62.40;;;;;;5054162;28;20852;-31
2021/07/16 12:40:17;;;;;;;2.65;2.03;;;23.70;62.40;;;;;;5037265;28;20048;-35
2021/07/16 12:43:09;;;;;;;1.80;1.70;;;23.70;62.40;;;;;;5042092;28;20568;-34
2021/07/16 12:46:02;;;;;;;2.10;2.00;;;23.70;62.60;;;;;;5052152;28;20040;-30
2021/07/16 12:48:35;;;;;;;2.42;2.20;;;23.80;62.60;;;;;;5041338;28;20039;-26